Time;durP1;ratioP1;P1;durP2;ratioP2;P2;SDS_P1;SDS_P2;PMS_P1;PMS_P2;Temp;Humidity;BMP_temperature;BMP_pressure;BME280_temperature;BME280_humidity;BME280_pressure;Samples;Min_cycle;Max_cycle;Signal;HPM_P1;HPM_P2
2023/04/25 00:02:01;;;;;;;1999.90;999.90;;;7.70;99.90;;;;;;4975367;28;20172;-73
2023/04/25 00:04:27;;;;;;;1999.90;999.90;;;7.70;99.90;;;;;;4975869;28;20206;-73
2023/04/25 00:06:57;;;;;;;1999.90;999.90;;;7.70;99.90;;;;;;4975740;28;20170;-73
2023/04/25 00:09:22;;;;;;;1999.90;999.90;;;7.70;99.90;;;;;;4975480;28;20455;-73
2023/04/25 00:11:48;;;;;;;1999.90;999.90;;;7.60;99.90;;;;;;4975300;28;20517;-73
2023/04/25 00:14:14;;;;;;;1999.90;999.90;;;7.60;99.90;;;;;;4975550;28;20210;-73
2023/04/25 00:16:41;;;;;;;1999.90;999.90;;;7.70;99.90;;;;;;4975065;28;20183;-73
2023/04/25 00:19:07;;;;;;;1999.90;999.90;;;7.70;99.90;;;;;;4975357;28;20415;-73
2023/04/25 00:21:33;;;;;;;1999.90;999.90;;;7.60;99.90;;;;;;4975200;28;20493;-74
2023/04/25 00:23:59;;;;;;;1999.90;999.90;;;7.60;99.90;;;;;;4975354;28;20542;-73
2023/04/25 00:26:25;;;;;;;1999.90;999.90;;;7.60;99.90;;;;;;4975314;28;20825;-74
2023/04/25 00:28:51;;;;;;;1999.90;999.90;;;7.70;99.90;;;;;;4975220;28;20407;-73
2023/04/25 00:31:17;;;;;;;1999.90;999.90;;;7.70;99.90;;;;;;4974914;28;20863;-73
2023/04/25 00:33:42;;;;;;;1999.90;999.90;;;7.70;99.90;;;;;;4975234;28;20190;-73
2023/04/25 00:36:08;;;;;;;1999.90;999.90;;;7.60;99.90;;;;;;4975204;28;20198;-73
2023/04/25 00:38:34;;;;;;;1999.90;999.90;;;7.60;99.90;;;;;;4975099;28;20178;-73
2023/04/25 00:41:00;;;;;;;1999.90;999.90;;;7.60;99.90;;;;;;4974754;28;20432;-73
2023/04/25 00:43:27;;;;;;;1999.90;999.90;;;7.60;99.90;;;;;;4974920;28;20195;-73
2023/04/25 00:45:53;;;;;;;1999.90;999.90;;;7.70;99.90;;;;;;4974893;28;20176;-73
2023/04/25 00:48:21;;;;;;;1999.90;999.90;;;7.80;99.90;;;;;;4974929;28;20521;-73
2023/04/25 00:50:55;;;;;;;1999.90;999.90;;;7.80;99.90;;;;;;4974619;28;20835;-74
2023/04/25 00:53:25;;;;;;;1999.90;999.90;;;7.60;99.90;;;;;;4974745;28;20452;-73
2023/04/25 00:55:51;;;;;;;1999.90;999.90;;;7.50;99.90;;;;;;4974781;28;20415;-73
2023/04/25 00:58:18;;;;;;;1999.90;999.90;;;7.90;99.90;;;;;;4973469;28;20450;-72
2023/04/25 01:00:46;;;;;;;1999.90;999.90;;;7.40;99.90;;;;;;4974566;28;20434;-74
2023/04/25 01:03:17;;;;;;;1999.90;999.90;;;7.70;99.90;;;;;;4974236;28;20442;-73
2023/04/25 01:05:43;;;;;;;1999.90;999.90;;;7.40;99.90;;;;;;4974654;28;20817;-73
2023/04/25 01:08:09;;;;;;;1999.90;999.90;;;7.30;99.90;;;;;;4974531;28;20922;-73
2023/04/25 01:10:36;;;;;;;1999.90;999.90;;;7.20;99.90;;;;;;4974610;28;20426;-73
2023/04/25 01:13:02;;;;;;;1999.90;999.90;;;7.30;99.90;;;;;;4974382;28;20403;-73
2023/04/25 01:15:28;;;;;;;1999.90;999.90;;;7.10;99.90;;;;;;4973225;28;20920;-73
2023/04/25 01:17:55;;;;;;;1999.90;999.90;;;7.10;99.90;;;;;;4974469;28;20419;-74
2023/04/25 01:20:22;;;;;;;1999.90;999.90;;;7.10;99.90;;;;;;4974451;28;20525;-73
2023/04/25 01:22:49;;;;;;;1999.90;999.90;;;7.10;99.90;;;;;;4973952;28;20411;-73
2023/04/25 01:25:16;;;;;;;1999.90;999.90;;;7.00;99.90;;;;;;4974143;28;20466;-73
2023/04/25 01:27:42;;;;;;;1999.90;999.90;;;7.10;99.90;;;;;;4974046;28;20453;-73
2023/04/25 01:30:08;;;;;;;1999.90;999.90;;;7.10;99.90;;;;;;4973810;28;20450;-74
2023/04/25 01:32:38;;;;;;;1999.90;999.90;;;7.00;99.90;;;;;;4974036;28;20183;-73
2023/04/25 01:35:09;;;;;;;1999.90;999.90;;;7.00;99.90;;;;;;4974184;28;20465;-74
2023/04/25 01:37:44;;;;;;;1999.90;999.90;;;7.00;99.90;;;;;;4974013;28;20410;-73
2023/04/25 01:40:12;;;;;;;1999.90;999.90;;;6.90;99.90;;;;;;4974140;28;20432;-73
2023/04/25 01:42:40;;;;;;;1999.90;999.90;;;6.90;99.90;;;;;;4973877;28;20422;-73
2023/04/25 01:45:07;;;;;;;1999.90;999.90;;;7.00;99.90;;;;;;4973880;28;20461;-73
2023/04/25 01:47:34;;;;;;;1999.90;999.90;;;7.00;99.90;;;;;;4974051;28;20419;-73
2023/04/25 01:50:01;;;;;;;1999.90;999.90;;;6.90;99.90;;;;;;4973786;28;20678;-73
2023/04/25 01:52:27;;;;;;;1999.90;999.90;;;7.00;99.90;;;;;;4973683;28;20439;-74
2023/04/25 01:54:54;;;;;;;1999.90;999.90;;;6.90;99.90;;;;;;4973766;28;20454;-72
2023/04/25 01:57:19;;;;;;;1999.90;999.90;;;6.90;99.90;;;;;;4973942;28;20201;-73
2023/04/25 01:59:46;;;;;;;1999.90;999.90;;;7.00;99.90;;;;;;4973708;28;20434;-74
2023/04/25 02:02:11;;;;;;;1999.90;999.90;;;7.00;99.90;;;;;;4973518;28;20290;-74
2023/04/25 02:04:37;;;;;;;1999.90;999.90;;;7.00;99.90;;;;;;4973634;28;20544;-73
2023/04/25 02:07:03;;;;;;;1999.90;999.90;;;7.00;99.90;;;;;;4973486;28;20313;-73
2023/04/25 02:09:29;;;;;;;1999.90;999.90;;;7.00;99.90;;;;;;4972372;28;20192;-73
2023/04/25 02:11:55;;;;;;;1999.90;999.90;;;7.00;99.90;;;;;;4973301;28;20502;-73
2023/04/25 02:14:20;;;;;;;1999.90;999.90;;;7.00;99.90;;;;;;4973646;28;20603;-73
2023/04/25 02:16:47;;;;;;;1999.90;999.90;;;7.00;99.90;;;;;;4973681;28;20241;-72
2023/04/25 02:19:12;;;;;;;1999.90;999.90;;;6.90;99.90;;;;;;4973481;28;20261;-73
2023/04/25 02:21:38;;;;;;;1999.90;999.90;;;7.00;99.90;;;;;;4973287;28;20835;-73
2023/04/25 02:24:04;;;;;;;1999.90;999.90;;;6.90;99.90;;;;;;4973453;28;20233;-73
2023/04/25 02:26:30;;;;;;;1999.90;999.90;;;6.90;99.90;;;;;;4972549;28;20201;-73
2023/04/25 02:28:56;;;;;;;1999.90;999.90;;;6.90;99.90;;;;;;4973521;28;20407;-73
2023/04/25 02:31:22;;;;;;;1999.90;999.90;;;6.90;99.90;;;;;;5014013;23;20491;-77
2023/04/25 02:33:48;;;;;;;1999.90;999.90;;;6.80;99.90;;;;;;4971793;28;20503;-76
2023/04/25 02:36:13;;;;;;;1999.90;999.90;;;6.90;99.90;;;;;;4973539;28;20171;-77
2023/04/25 02:38:39;;;;;;;1999.90;999.90;;;6.90;99.90;;;;;;4973096;28;20176;-76
2023/04/25 02:41:05;;;;;;;1999.90;999.90;;;6.80;99.90;;;;;;4975910;28;20192;-76
2023/04/25 02:43:30;;;;;;;1999.90;999.90;;;6.90;99.90;;;;;;4976991;28;20446;-77
2023/04/25 02:45:56;;;;;;;1999.90;999.90;;;6.90;99.90;;;;;;4977040;28;20210;-77
2023/04/25 02:48:21;;;;;;;1999.90;999.90;;;7.00;99.90;;;;;;4977044;28;20166;-77
2023/04/25 02:50:47;;;;;;;1999.90;999.90;;;7.00;99.90;;;;;;4976841;28;20273;-77
2023/04/25 02:53:13;;;;;;;1999.90;999.90;;;7.00;99.90;;;;;;4976657;28;20583;-76
2023/04/25 02:55:38;;;;;;;1999.90;999.90;;;6.80;99.90;;;;;;4976894;28;20198;-77
2023/04/25 02:58:04;;;;;;;1999.90;999.90;;;6.90;99.90;;;;;;4976882;28;20254;-77
2023/04/25 03:00:30;;;;;;;1999.90;999.90;;;7.00;99.90;;;;;;4976765;28;20848;-77
2023/04/25 03:02:55;;;;;;;1999.90;999.90;;;6.90;99.90;;;;;;4976492;28;20410;-76
2023/04/25 03:05:21;;;;;;;1999.90;999.90;;;6.90;99.90;;;;;;4976564;28;20285;-77
2023/04/25 03:07:47;;;;;;;1999.90;999.90;;;6.80;99.90;;;;;;4976672;28;20625;-77
2023/04/25 03:10:12;;;;;;;1999.90;999.90;;;6.90;99.90;;;;;;4976611;28;20186;-77
2023/04/25 03:12:38;;;;;;;1999.90;999.90;;;6.90;99.90;;;;;;4976369;28;20807;-76
2023/04/25 03:15:05;;;;;;;1999.90;999.90;;;6.90;99.90;;;;;;4976539;28;20486;-76
2023/04/25 03:17:31;;;;;;;1999.90;999.90;;;6.80;99.90;;;;;;4976517;28;20437;-77
2023/04/25 03:19:57;;;;;;;1999.90;999.90;;;6.70;99.90;;;;;;4976239;28;20929;-77
2023/04/25 03:22:23;;;;;;;1999.90;999.90;;;6.90;99.90;;;;;;4976195;28;20172;-77
2023/04/25 03:24:50;;;;;;;1999.90;999.90;;;7.00;99.90;;;;;;4976279;28;20482;-77
2023/04/25 03:27:16;;;;;;;1999.90;999.90;;;7.10;99.90;;;;;;4976312;28;20406;-76
2023/04/25 03:29:42;;;;;;;1999.90;999.90;;;6.90;99.90;;;;;;4976108;28;20447;-76
2023/04/25 03:32:07;;;;;;;1999.90;999.90;;;6.90;99.90;;;;;;4975941;28;20488;-77
2023/04/25 03:34:33;;;;;;;1999.90;999.90;;;6.90;99.90;;;;;;4976146;28;20178;-77
2023/04/25 03:36:58;;;;;;;1999.90;999.90;;;6.90;99.90;;;;;;4976249;28;20175;-77
2023/04/25 03:39:24;;;;;;;1999.90;999.90;;;7.00;99.90;;;;;;4976088;28;20269;-77
2023/04/25 03:41:50;;;;;;;1999.90;999.90;;;7.00;99.90;;;;;;4975730;28;20541;-77
2023/04/25 03:44:15;;;;;;;1999.90;999.90;;;7.00;99.90;;;;;;4976085;28;20281;-77
2023/04/25 03:46:41;;;;;;;1999.90;999.90;;;6.90;99.90;;;;;;4975977;28;20172;-77
2023/04/25 03:49:06;;;;;;;1999.90;999.90;;;7.20;99.90;;;;;;4975860;28;20632;-77
2023/04/25 03:51:32;;;;;;;1999.90;999.90;;;6.90;99.90;;;;;;4974797;28;20195;-77
2023/04/25 03:53:57;;;;;;;1999.90;999.90;;;6.90;99.90;;;;;;4975854;28;20537;-77
2023/04/25 03:56:23;;;;;;;1999.90;999.90;;;6.90;99.90;;;;;;4975829;28;20195;-76
2023/04/25 03:58:49;;;;;;;1999.90;999.90;;;6.90;99.90;;;;;;4975688;28;20868;-77
2023/04/25 04:01:14;;;;;;;1999.90;999.90;;;6.90;99.90;;;;;;4975369;28;20203;-77
2023/04/25 04:03:40;;;;;;;1999.90;999.90;;;6.90;99.90;;;;;;4975473;28;20193;-77
2023/04/25 04:06:07;;;;;;;1999.90;999.90;;;6.90;99.90;;;;;;4975652;28;20167;-77
2023/04/25 04:08:33;;;;;;;1999.90;999.90;;;6.90;99.90;;;;;;4975558;28;20207;-77
2023/04/25 04:10:59;;;;;;;1999.90;999.90;;;6.70;99.90;;;;;;4975251;28;21055;-77
2023/04/25 04:13:26;;;;;;;1999.90;999.90;;;6.70;99.90;;;;;;4975533;28;20437;-77
2023/04/25 04:15:52;;;;;;;1999.90;999.90;;;6.70;99.90;;;;;;4975447;28;20833;-77
2023/04/25 04:18:18;;;;;;;1999.90;999.90;;;6.70;99.90;;;;;;4975395;28;20457;-77
2023/04/25 04:20:43;;;;;;;1999.90;999.90;;;6.70;99.90;;;;;;4975260;28;20802;-77
2023/04/25 04:23:09;;;;;;;1999.90;999.90;;;6.70;99.90;;;;;;4974997;28;20171;-77
2023/04/25 04:25:35;;;;;;;1999.90;999.90;;;6.70;99.90;;;;;;4975341;28;20226;-77
2023/04/25 04:28:01;;;;;;;1999.90;999.90;;;6.70;99.90;;;;;;4975255;28;20175;-76
2023/04/25 04:30:29;;;;;;;1999.90;999.90;;;6.70;99.90;;;;;;4975869;28;20461;-76
2023/04/25 04:32:57;;;;;;;1999.90;999.90;;;6.70;99.90;;;;;;4976073;28;20548;-76
2023/04/25 04:35:24;;;;;;;1999.90;999.90;;;6.60;99.90;;;;;;4976986;28;20936;-75
2023/04/25 04:37:50;;;;;;;1999.90;999.90;;;6.70;99.90;;;;;;4975639;28;20465;-75
2023/04/25 04:40:17;;;;;;;1999.90;999.90;;;6.70;99.90;;;;;;4974693;28;20445;-75
2023/04/25 04:42:43;;;;;;;1999.90;999.90;;;6.80;99.90;;;;;;4976503;28;20538;-75
2023/04/25 04:45:10;;;;;;;1999.90;999.90;;;6.70;99.90;;;;;;4976441;28;20453;-75
2023/04/25 04:47:36;;;;;;;1999.90;999.90;;;6.60;99.90;;;;;;4976610;28;20410;-75
2023/04/25 04:50:02;;;;;;;1999.90;999.90;;;6.60;99.90;;;;;;4977473;28;20828;-75
2023/04/25 04:52:28;;;;;;;1999.90;999.90;;;6.70;99.90;;;;;;4977275;28;20410;-75
2023/04/25 04:54:54;;;;;;;1999.90;999.90;;;6.60;99.90;;;;;;4976912;28;20416;-75
2023/04/25 04:57:19;;;;;;;1999.90;999.90;;;6.50;99.90;;;;;;4975996;28;20579;-75
2023/04/25 04:59:45;;;;;;;1999.90;999.90;;;6.50;99.90;;;;;;4977457;28;20286;-76
2023/04/25 05:02:11;;;;;;;1999.90;999.90;;;6.50;99.90;;;;;;4977299;28;20171;-77
2023/04/25 05:04:36;;;;;;;1999.90;999.90;;;6.40;99.90;;;;;;4973468;28;20819;-76
2023/04/25 05:07:02;;;;;;;1999.90;999.90;;;6.40;99.90;;;;;;4974438;28;20178;-77
2023/04/25 05:09:27;;;;;;;1999.90;999.90;;;6.50;99.90;;;;;;4974402;28;20178;-77
2023/04/25 05:11:53;;;;;;;1999.90;999.90;;;6.40;99.90;;;;;;4974183;28;20173;-77
2023/04/25 05:14:19;;;;;;;1999.90;999.90;;;6.30;99.90;;;;;;4974414;28;20175;-76
2023/04/25 05:16:44;;;;;;;1999.90;999.90;;;6.30;99.90;;;;;;4974191;28;20176;-77
2023/04/25 05:19:10;;;;;;;1999.90;999.90;;;6.30;99.90;;;;;;4974228;28;20217;-76
2023/04/25 05:21:35;;;;;;;1999.90;999.90;;;6.40;99.90;;;;;;4973977;28;20791;-76
2023/04/25 05:24:02;;;;;;;1999.90;999.90;;;6.40;99.90;;;;;;4974123;28;20233;-76
2023/04/25 05:26:30;;;;;;;1999.90;999.90;;;6.40;99.90;;;;;;4974209;28;20221;-76
2023/04/25 05:28:59;;;;;;;1999.90;999.90;;;6.50;99.90;;;;;;4974088;28;20944;-77
2023/04/25 05:31:26;;;;;;;1999.90;999.90;;;6.50;99.90;;;;;;4973526;28;20453;-76
2023/04/25 05:33:52;;;;;;;1999.90;999.90;;;6.40;99.90;;;;;;4973943;28;20953;-77
2023/04/25 05:36:19;;;;;;;1999.90;999.90;;;6.60;99.90;;;;;;4974044;28;20411;-77
2023/04/25 05:38:45;;;;;;;1999.90;999.90;;;6.60;99.90;;;;;;4973933;28;20783;-76
2023/04/25 05:41:10;;;;;;;1999.90;999.90;;;6.70;99.90;;;;;;4977177;28;20425;-76
2023/04/25 05:43:36;;;;;;;1999.90;999.90;;;6.70;99.90;;;;;;4978953;28;21126;-76
2023/04/25 05:46:02;;;;;;;1999.90;999.90;;;6.90;99.90;;;;;;4978396;28;20166;-77
2023/04/25 05:48:27;;;;;;;1999.90;999.90;;;6.80;99.90;;;;;;4979394;28;20220;-75
2023/04/25 05:50:53;;;;;;;1999.90;999.90;;;6.80;99.90;;;;;;4978440;28;20665;-76
2023/04/25 05:53:20;;;;;;;1999.90;999.90;;;6.80;99.90;;;;;;4978700;28;20167;-77
2023/04/25 05:55:46;;;;;;;1999.90;999.90;;;6.80;99.90;;;;;;4977850;28;20190;-76
2023/04/25 05:58:12;;;;;;;1999.90;999.90;;;6.80;99.90;;;;;;4978078;28;20920;-76
2023/04/25 06:00:38;;;;;;;1999.90;999.90;;;6.80;99.90;;;;;;4979397;28;20433;-76
2023/04/25 06:03:03;;;;;;;1999.90;999.90;;;6.80;99.90;;;;;;4979384;28;20604;-76
2023/04/25 06:05:29;;;;;;;1999.90;999.90;;;6.90;99.90;;;;;;4980008;28;20555;-76
2023/04/25 06:07:55;;;;;;;1999.90;999.90;;;7.00;99.90;;;;;;4978605;28;20178;-76
2023/04/25 06:10:22;;;;;;;1999.90;999.90;;;6.90;99.90;;;;;;4978572;28;20184;-77
2023/04/25 06:12:48;;;;;;;1999.90;999.90;;;7.00;99.90;;;;;;4979522;28;20186;-76
2023/04/25 06:15:13;;;;;;;1999.90;999.90;;;7.00;99.90;;;;;;4978446;28;20441;-77
2023/04/25 06:17:39;;;;;;;1999.90;999.90;;;7.20;99.90;;;;;;4979061;28;20590;-77
2023/04/25 06:20:05;;;;;;;1999.90;999.90;;;7.10;99.90;;;;;;4978596;28;20692;-77
2023/04/25 06:22:31;;;;;;;1999.90;999.90;;;7.10;99.90;;;;;;4979413;28;20540;-76
2023/04/25 06:24:59;;;;;;;1999.90;999.90;;;7.10;99.90;;;;;;4979560;28;20477;-76
2023/04/25 06:27:25;;;;;;;1999.90;999.90;;;7.10;99.90;;;;;;4978503;28;20418;-76
2023/04/25 06:29:51;;;;;;;1999.90;999.90;;;7.20;99.90;;;;;;4978816;28;20451;-76
2023/04/25 06:32:18;;;;;;;1999.90;999.90;;;7.30;99.90;;;;;;4979065;28;20185;-75
2023/04/25 06:34:43;;;;;;;1999.90;999.90;;;7.30;99.90;;;;;;4978313;28;20167;-77
2023/04/25 06:37:09;;;;;;;1999.90;999.90;;;7.20;99.90;;;;;;4977263;28;20417;-76
2023/04/25 06:39:35;;;;;;;1999.90;999.90;;;7.20;99.90;;;;;;4977312;28;20238;-76
2023/04/25 06:42:00;;;;;;;1999.90;999.90;;;7.10;99.90;;;;;;4975679;28;20179;-77
2023/04/25 06:44:26;;;;;;;1999.90;999.90;;;7.30;99.90;;;;;;4977618;28;20276;-76
2023/04/25 06:46:51;;;;;;;1999.90;999.90;;;7.10;99.90;;;;;;4978808;28;20176;-77
2023/04/25 06:49:17;;;;;;;1999.90;999.90;;;7.40;99.90;;;;;;4978074;28;20640;-76
2023/04/25 06:51:43;;;;;;;1999.90;999.90;;;7.40;99.90;;;;;;4980212;28;20199;-76
2023/04/25 06:54:08;;;;;;;1999.90;999.90;;;7.50;99.90;;;;;;4977517;28;20194;-76
2023/04/25 06:56:34;;;;;;;1999.90;999.90;;;7.70;99.90;;;;;;4977585;28;20178;-77
2023/04/25 06:59:00;;;;;;;1999.90;999.90;;;7.30;99.90;;;;;;4971684;28;20202;-77
2023/04/25 07:01:26;;;;;;;1999.90;999.90;;;7.50;99.90;;;;;;4959656;28;20220;-77
2023/04/25 07:03:51;;;;;;;1999.90;999.90;;;7.60;99.90;;;;;;4960274;29;20466;-77
2023/04/25 07:06:17;;;;;;;1999.90;999.90;;;7.80;99.90;;;;;;4959980;29;20179;-76
2023/04/25 07:08:43;;;;;;;1999.90;999.90;;;7.80;99.90;;;;;;4960575;29;20172;-76
2023/04/25 07:11:08;;;;;;;1999.90;999.90;;;7.80;99.90;;;;;;4959549;28;20220;-76
2023/04/25 07:13:34;;;;;;;1999.90;999.90;;;7.90;99.90;;;;;;4960460;29;20180;-76
2023/04/25 07:16:00;;;;;;;1999.90;999.90;;;8.00;99.90;;;;;;4959534;29;20666;-76
2023/04/25 07:18:25;;;;;;;1999.90;999.90;;;7.90;99.90;;;;;;4958311;28;20173;-76
2023/04/25 07:20:51;;;;;;;1999.90;999.90;;;7.90;99.90;;;;;;4958571;28;20219;-76
2023/04/25 07:23:16;;;;;;;1999.90;999.90;;;7.80;99.90;;;;;;4964644;28;20183;-76
2023/04/25 07:25:42;;;;;;;1999.90;999.90;;;7.90;99.90;;;;;;4959951;28;20187;-76
2023/04/25 07:28:08;;;;;;;1999.90;999.90;;;8.10;99.90;;;;;;4962350;28;20175;-76
2023/04/25 07:30:34;;;;;;;1999.90;999.90;;;7.90;99.90;;;;;;4963450;28;20265;-77
2023/04/25 07:33:00;;;;;;;1999.90;999.90;;;8.00;99.90;;;;;;4962966;28;20519;-77
2023/04/25 07:35:26;;;;;;;1999.90;999.90;;;8.00;99.90;;;;;;4965395;28;20421;-75
2023/04/25 07:37:51;;;;;;;1999.90;999.90;;;8.10;99.90;;;;;;4973727;28;20686;-76
2023/04/25 07:40:17;;;;;;;1999.90;999.90;;;8.20;99.90;;;;;;4974582;28;20232;-76
2023/04/25 07:42:43;;;;;;;1999.90;999.90;;;8.20;99.90;;;;;;4977296;28;20177;-76
2023/04/25 07:45:09;;;;;;;1999.90;999.90;;;8.40;99.90;;;;;;4977152;28;20756;-75
2023/04/25 07:47:35;;;;;;;1999.90;999.90;;;8.20;99.90;;;;;;4969137;28;20186;-75
2023/04/25 07:50:01;;;;;;;1999.90;999.90;;;8.10;99.90;;;;;;4967728;28;20435;-75
2023/04/25 07:52:26;;;;;;;1999.90;999.90;;;8.20;99.90;;;;;;4966304;28;20427;-75
2023/04/25 07:54:52;;;;;;;1999.90;999.90;;;8.30;99.90;;;;;;4968946;28;20682;-75
2023/04/25 07:57:19;;;;;;;1999.90;999.90;;;8.40;99.90;;;;;;4973887;28;20188;-75
2023/04/25 07:59:45;;;;;;;1999.90;999.90;;;8.40;99.90;;;;;;4977282;28;20201;-76
2023/04/25 08:02:10;;;;;;;1999.90;999.90;;;8.50;99.90;;;;;;4973494;28;20414;-75
2023/04/25 08:04:36;;;;;;;1999.90;999.90;;;8.70;99.90;;;;;;4973728;28;20205;-76
2023/04/25 08:07:02;;;;;;;1999.90;999.90;;;8.70;99.90;;;;;;4976668;28;20589;-75
2023/04/25 08:09:28;;;;;;;1999.90;999.90;;;8.60;99.90;;;;;;4976285;28;20172;-75
2023/04/25 08:11:53;;;;;;;1999.90;999.90;;;8.60;99.90;;;;;;4975949;28;20166;-75
2023/04/25 08:14:19;;;;;;;1999.90;999.90;;;8.70;99.90;;;;;;4973230;28;20449;-75
2023/04/25 08:16:45;;;;;;;1999.90;999.90;;;8.70;99.90;;;;;;4965703;28;20180;-75
2023/04/25 08:19:11;;;;;;;1999.90;999.90;;;8.90;99.90;;;;;;4962032;28;20415;-75
2023/04/25 08:21:36;;;;;;;1999.90;999.90;;;9.00;99.90;;;;;;4956805;28;20246;-75
2023/04/25 08:24:02;;;;;;;1999.90;999.90;;;8.90;99.90;;;;;;4957330;28;20457;-75
2023/04/25 08:26:28;;;;;;;1999.90;999.90;;;8.90;99.90;;;;;;4956921;28;20181;-75
2023/04/25 08:28:54;;;;;;;1999.90;999.90;;;9.00;99.90;;;;;;4956828;28;20543;-75
2023/04/25 08:31:20;;;;;;;1999.90;999.90;;;8.80;99.90;;;;;;4960377;28;20453;-76
2023/04/25 08:33:46;;;;;;;1999.90;999.90;;;9.00;99.90;;;;;;4962450;28;20661;-76
2023/04/25 08:36:12;;;;;;;1999.90;999.90;;;9.10;99.90;;;;;;4962299;28;20831;-76
2023/04/25 08:38:37;;;;;;;1999.90;999.90;;;9.30;99.90;;;;;;4960726;28;20207;-76
2023/04/25 08:41:05;;;;;;;1999.90;999.90;;;9.20;99.90;;;;;;4961247;28;20553;-77
2023/04/25 08:43:30;;;;;;;1999.90;999.90;;;9.30;99.90;;;;;;4961201;29;20652;-76
2023/04/25 08:46:00;;;;;;;1999.90;999.90;;;9.50;99.90;;;;;;4964311;28;20464;-76
2023/04/25 08:48:30;;;;;;;1999.90;999.90;;;9.50;99.90;;;;;;4971144;28;20175;-75
2023/04/25 08:51:24;;;;;;;1999.90;999.90;;;9.40;99.90;;;;;;5038953;23;20567;-75
2023/04/25 08:54:09;;;;;;;1999.90;999.90;;;9.30;99.90;;;;;;4977823;28;20917;-75
2023/04/25 08:56:35;;;;;;;1999.90;999.90;;;9.60;99.90;;;;;;4974873;28;20522;-78
2023/04/25 08:59:07;;;;;;;1999.90;999.90;;;9.70;99.90;;;;;;4974288;28;20468;-79
2023/04/25 09:01:35;;;;;;;1999.90;999.90;;;9.70;99.90;;;;;;4969647;28;20441;-78
2023/04/25 09:07:29;;;;;;;1999.90;999.90;;;9.50;99.90;;;;;;4974607;28;20905;-76
2023/04/25 09:10:01;;;;;;;1999.90;999.90;;;9.80;99.90;;;;;;4969540;28;20444;-78
2023/04/25 09:12:33;;;;;;;1999.90;999.90;;;9.80;99.90;;;;;;4953161;28;20425;-78
2023/04/25 09:15:57;;;;;;;1999.90;999.90;;;9.80;99.90;;;;;;4955768;28;20428;-77
2023/04/25 09:18:34;;;;;;;1999.90;999.90;;;9.70;99.90;;;;;;4874316;29;20517;-78
2023/04/25 09:21:10;;;;;;;1999.90;999.90;;;10.30;99.90;;;;;;4877571;29;20476;-76
2023/04/25 09:23:45;;;;;;;1999.90;999.90;;;10.00;99.90;;;;;;4877341;29;20437;-75
2023/04/25 09:26:16;;;;;;;1999.90;999.90;;;10.00;99.90;;;;;;4877405;29;20468;-75
2023/04/25 09:32:18;;;;;;;1999.90;999.90;;;9.40;99.90;;;;;;5081978;23;21009;-76
2023/04/25 09:34:49;;;;;;;1999.90;999.90;;;9.40;99.90;;;;;;4993966;28;20423;-76
2023/04/25 09:37:29;;;;;;;1999.90;999.90;;;9.50;99.90;;;;;;4995388;28;20418;-75
2023/04/25 09:40:02;;;;;;;1999.90;999.90;;;9.50;99.90;;;;;;4995231;28;20431;-76
2023/04/25 09:42:31;;;;;;;1999.90;999.90;;;9.70;99.90;;;;;;4993017;28;20499;-76
2023/04/25 09:44:57;;;;;;;1999.90;999.90;;;10.00;99.90;;;;;;4993095;28;20459;-76
2023/04/25 09:47:25;;;;;;;1999.90;999.90;;;10.30;99.90;;;;;;4989895;28;20401;-77
2023/04/25 09:49:51;;;;;;;1999.90;999.90;;;10.30;99.90;;;;;;4989482;28;20466;-76
2023/04/25 09:52:21;;;;;;;1999.90;999.90;;;10.30;99.90;;;;;;4989633;28;20975;-77
2023/04/25 09:54:48;;;;;;;1999.90;999.90;;;10.40;99.90;;;;;;4991488;28;20454;-77
2023/04/25 09:57:15;;;;;;;1999.90;999.90;;;10.30;99.90;;;;;;4995760;28;20420;-76
2023/04/25 09:59:45;;;;;;;1999.90;999.90;;;10.00;99.90;;;;;;4994580;28;20946;-75
2023/04/25 10:02:12;;;;;;;1999.90;999.90;;;10.00;99.90;;;;;;4992004;28;20529;-75
2023/04/25 10:04:38;;;;;;;1999.90;999.90;;;9.90;99.90;;;;;;4976507;28;20460;-76
2023/04/25 10:07:42;;;;;;;1999.90;999.90;;;9.80;99.90;;;;;;4974618;28;21076;-77
2023/04/25 10:10:11;;;;;;;1999.90;999.90;;;9.40;99.90;;;;;;4970689;28;20448;-77
2023/04/25 10:12:52;;;;;;;1999.90;999.90;;;9.90;99.90;;;;;;4975429;28;20557;-78
2023/04/25 10:15:19;;;;;;;1999.90;999.90;;;9.60;99.90;;;;;;4971345;28;20440;-77
2023/04/25 10:17:45;;;;;;;1999.90;999.90;;;10.10;99.90;;;;;;4971715;28;20428;-77
2023/04/25 10:20:11;;;;;;;1999.90;999.90;;;10.10;99.90;;;;;;4971509;28;20433;-77
2023/04/25 10:22:43;;;;;;;1999.90;999.90;;;10.30;99.90;;;;;;4976257;28;20425;-75
2023/04/25 10:25:10;;;;;;;1999.90;999.90;;;10.40;99.90;;;;;;4978287;28;20471;-76
2023/04/25 10:27:37;;;;;;;1999.90;999.90;;;10.50;99.90;;;;;;4972327;28;20424;-77
2023/04/25 10:30:14;;;;;;;1999.90;999.90;;;10.70;99.90;;;;;;4976955;28;20449;-74
2023/04/25 10:32:42;;;;;;;1999.90;999.90;;;11.10;99.90;;;;;;4974968;28;20420;-74
2023/04/25 10:35:18;;;;;;;1999.90;999.90;;;11.20;99.90;;;;;;4975973;28;20923;-76
2023/04/25 10:38:03;;;;;;;1999.90;999.90;;;11.40;99.90;;;;;;4975363;28;20417;-75
2023/04/25 10:40:29;;;;;;;1999.90;999.90;;;11.30;99.90;;;;;;4974270;28;20431;-76
2023/04/25 10:42:56;;;;;;;1999.90;999.90;;;11.00;99.90;;;;;;4977332;28;20497;-75
2023/04/25 10:45:22;;;;;;;1999.90;999.90;;;10.70;99.90;;;;;;4976810;28;20462;-77
2023/04/25 10:47:48;;;;;;;1999.90;999.90;;;10.70;99.90;;;;;;4980065;28;20430;-75
2023/04/25 10:50:19;;;;;;;1999.90;999.90;;;10.60;99.90;;;;;;4982233;28;20435;-75
2023/04/25 10:52:45;;;;;;;1999.90;999.90;;;10.30;99.90;;;;;;4985042;28;20209;-76
2023/04/25 10:55:10;;;;;;;1999.90;999.90;;;10.30;99.90;;;;;;4976572;28;20429;-76
2023/04/25 10:57:36;;;;;;;1999.90;999.90;;;10.20;99.90;;;;;;4973605;28;20175;-75
2023/04/25 11:00:06;;;;;;;1999.90;999.90;;;10.20;99.90;;;;;;4980954;28;20208;-76
2023/04/25 11:02:32;;;;;;;1999.90;999.90;;;10.20;99.90;;;;;;4983331;28;20182;-76
2023/04/25 11:04:57;;;;;;;1999.90;999.90;;;10.50;99.90;;;;;;4976856;28;20461;-75
2023/04/25 11:07:35;;;;;;;1999.90;999.90;;;10.80;99.90;;;;;;4977101;28;20417;-76
2023/04/25 11:10:05;;;;;;;1999.90;999.90;;;11.10;99.90;;;;;;4977919;28;20589;-76
2023/04/25 11:12:31;;;;;;;1999.90;999.90;;;11.20;99.90;;;;;;4977474;28;20488;-76
2023/04/25 11:15:06;;;;;;;1999.90;999.90;;;11.30;99.90;;;;;;4978260;28;20450;-77
2023/04/25 11:17:31;;;;;;;1999.90;999.90;;;11.20;99.90;;;;;;4979336;28;20476;-76
2023/04/25 11:19:57;;;;;;;1999.90;999.90;;;10.70;99.90;;;;;;4978790;28;20440;-76
2023/04/25 11:22:23;;;;;;;1999.90;999.90;;;10.50;99.90;;;;;;4979258;28;20410;-76
2023/04/25 11:24:50;;;;;;;1999.90;999.90;;;10.30;99.90;;;;;;4978434;28;20197;-76
2023/04/25 11:27:16;;;;;;;1999.90;999.90;;;10.20;99.90;;;;;;4978173;28;20401;-76
2023/04/25 11:29:41;;;;;;;1999.90;999.90;;;10.20;99.90;;;;;;4978640;28;20435;-76
2023/04/25 11:32:07;;;;;;;1999.90;999.90;;;10.10;99.90;;;;;;4979122;28;20170;-76
2023/04/25 11:34:33;;;;;;;1999.90;999.90;;;10.30;99.90;;;;;;4977960;28;20655;-77
2023/04/25 11:37:03;;;;;;;1999.90;999.90;;;10.10;99.90;;;;;;4978146;28;20410;-76
2023/04/25 11:39:30;;;;;;;1999.90;999.90;;;10.40;99.90;;;;;;4979553;28;20417;-76
2023/04/25 11:41:55;;;;;;;1999.90;999.90;;;10.50;99.90;;;;;;4980663;28;20409;-76
2023/04/25 11:44:22;;;;;;;1999.90;999.90;;;10.90;99.90;;;;;;4980739;28;20480;-76
2023/04/25 11:46:47;;;;;;;1999.90;999.90;;;11.30;99.90;;;;;;4980331;28;20182;-76
2023/04/25 11:49:14;;;;;;;1999.90;999.90;;;11.40;99.90;;;;;;4980485;28;20410;-75
2023/04/25 11:51:40;;;;;;;1999.90;999.90;;;11.50;99.90;;;;;;4979985;28;20190;-76
2023/04/25 11:54:06;;;;;;;1999.90;999.90;;;11.40;99.90;;;;;;4980380;28;20465;-76
2023/04/25 11:56:32;;;;;;;1999.90;999.90;;;11.60;99.90;;;;;;4979619;28;20179;-76
2023/04/25 11:59:02;;;;;;;1999.90;999.90;;;11.80;99.90;;;;;;4980022;28;20170;-77
2023/04/25 12:01:33;;;;;;;1999.90;999.90;;;12.10;99.90;;;;;;4980320;28;20489;-76
2023/04/25 12:04:10;;;;;;;1999.90;999.90;;;12.90;99.90;;;;;;4978833;28;20462;-75
2023/04/25 12:06:40;;;;;;;1999.90;999.90;;;13.40;99.90;;;;;;4975946;28;20411;-76
2023/04/25 12:09:08;;;;;;;1999.90;999.90;;;13.80;99.00;;;;;;4976116;28;20436;-76
2023/04/25 12:11:45;;;;;;;1999.90;999.90;;;13.90;99.90;;;;;;4975405;28;20492;-76
2023/04/25 12:14:12;;;;;;;1999.90;999.90;;;13.80;93.60;;;;;;4975589;28;20851;-76